sensor_id;sensor_type;location;lat;lon;timestamp;pressure;altitude;pressure_sealevel;temperature;humidity
12073;BME280;6098;49.004;8.372;2023-04-19T00:08:49;100997.89;;;11.80;72.56
12073;BME280;6098;49.004;8.372;2023-04-19T00:24:59;100994.11;;;11.74;72.81
12073;BME280;6098;49.004;8.372;2023-04-19T00:41:13;100990.58;;;11.61;73.02
12073;BME280;6098;49.004;8.372;2023-04-19T00:57:27;100978.39;;;11.54;73.41
12073;BME280;6098;49.004;8.372;2023-04-19T01:13:42;100969.91;;;11.43;73.96
12073;BME280;6098;49.004;8.372;2023-04-19T01:29:58;100958.78;;;11.32;74.61
12073;BME280;6098;49.004;8.372;2023-04-19T01:46:13;100951.89;;;11.26;74.91
12073;BME280;6098;49.004;8.372;2023-04-19T02:02:28;100934.66;;;11.25;74.72
12073;BME280;6098;49.004;8.372;2023-04-19T02:18:45;100927.05;;;11.29;74.47
12073;BME280;6098;49.004;8.372;2023-04-19T02:33:37;100922.00;;;11.21;74.84
12073;BME280;6098;49.004;8.372;2023-04-19T02:48:28;100915.83;;;11.20;74.54
12073;BME280;6098;49.004;8.372;2023-04-19T03:03:19;100903.62;;;11.15;74.84
12073;BME280;6098;49.004;8.372;2023-04-19T03:18:13;100900.08;;;11.15;74.89
12073;BME280;6098;49.004;8.372;2023-04-19T03:33:04;100900.25;;;11.10;74.85
12073;BME280;6098;49.004;8.372;2023-04-19T03:47:56;100888.26;;;11.12;74.54
12073;BME280;6098;49.004;8.372;2023-04-19T04:02:47;100879.53;;;11.08;74.62
12073;BME280;6098;49.004;8.372;2023-04-19T04:17:38;100877.22;;;10.97;74.92
12073;BME280;6098;49.004;8.372;2023-04-19T04:32:30;100877.13;;;10.87;75.30
12073;BME280;6098;49.004;8.372;2023-04-19T04:47:21;100879.55;;;10.93;75.14
12073;BME280;6098;49.004;8.372;2023-04-19T05:02:11;100878.90;;;11.01;74.42
12073;BME280;6098;49.004;8.372;2023-04-19T05:17:03;100877.13;;;11.00;74.51
12073;BME280;6098;49.004;8.372;2023-04-19T05:31:54;100894.27;;;11.03;74.03
12073;BME280;6098;49.004;8.372;2023-04-19T05:46:44;100888.64;;;10.99;73.98
12073;BME280;6098;49.004;8.372;2023-04-19T06:01:35;100896.53;;;10.88;73.97
12073;BME280;6098;49.004;8.372;2023-04-19T06:16:27;100908.28;;;11.08;73.60
12073;BME280;6098;49.004;8.372;2023-04-19T06:31:18;100908.69;;;11.35;72.61
12073;BME280;6098;49.004;8.372;2023-04-19T06:46:11;100902.72;;;11.41;71.51
12073;BME280;6098;49.004;8.372;2023-04-19T07:01:03;100916.44;;;11.80;69.96
12073;BME280;6098;49.004;8.372;2023-04-19T07:15:55;100913.41;;;12.03;69.35
12073;BME280;6098;49.004;8.372;2023-04-19T07:33:22;100890.05;;;12.36;68.01
12073;BME280;6098;49.004;8.372;2023-04-19T07:35:49;100882.76;;;12.52;68.01
12073;BME280;6098;49.004;8.372;2023-04-19T07:50:08;100887.03;;;12.78;66.74
12073;BME280;6098;49.004;8.372;2023-04-19T08:05:01;100877.09;;;12.94;66.15
12073;BME280;6098;49.004;8.372;2023-04-19T08:19:58;100870.34;;;13.18;65.18
12073;BME280;6098;49.004;8.372;2023-04-19T08:34:50;100865.34;;;13.32;64.39
12073;BME280;6098;49.004;8.372;2023-04-19T08:49:45;100845.94;;;14.08;60.18
12073;BME280;6098;49.004;8.372;2023-04-19T09:04:37;100844.34;;;14.04;60.63
12073;BME280;6098;49.004;8.372;2023-04-19T09:19:37;100834.20;;;13.93;61.31
12073;BME280;6098;49.004;8.372;2023-04-19T09:34:20;100831.21;;;13.71;62.96
12073;BME280;6098;49.004;8.372;2023-04-19T10:04:05;100806.02;;;13.97;63.17
12073;BME280;6098;49.004;8.372;2023-04-19T10:18:56;100801.40;;;14.20;61.34
12073;BME280;6098;49.004;8.372;2023-04-19T10:33:48;100792.32;;;14.61;60.15
12073;BME280;6098;49.004;8.372;2023-04-19T10:48:40;100772.51;;;14.84;60.65
12073;BME280;6098;49.004;8.372;2023-04-19T11:18:38;100737.16;;;14.70;61.45
12073;BME280;6098;49.004;8.372;2023-04-19T11:33:32;100719.21;;;14.47;62.48
12073;BME280;6098;49.004;8.372;2023-04-19T11:48:25;100700.75;;;14.33;63.98
12073;BME280;6098;49.004;8.372;2023-04-19T12:03:23;100699.00;;;13.96;66.64
12073;BME280;6098;49.004;8.372;2023-04-19T12:18:17;100690.97;;;13.50;76.68
12073;BME280;6098;49.004;8.372;2023-04-19T12:33:08;100682.27;;;13.37;76.04
12073;BME280;6098;49.004;8.372;2023-04-19T12:48:00;100683.31;;;13.33;74.84
12073;BME280;6098;49.004;8.372;2023-04-19T13:02:52;100669.73;;;13.29;71.57
12073;BME280;6098;49.004;8.372;2023-04-19T13:17:45;100655.44;;;13.22;73.64
12073;BME280;6098;49.004;8.372;2023-04-19T13:32:36;100650.02;;;13.14;76.87
12073;BME280;6098;49.004;8.372;2023-04-19T13:47:28;100633.71;;;12.91;78.29
12073;BME280;6098;49.004;8.372;2023-04-19T14:02:19;100612.27;;;12.55;81.89
12073;BME280;6098;49.004;8.372;2023-04-19T14:17:11;100572.86;;;12.55;82.32
12073;BME280;6098;49.004;8.372;2023-04-19T14:32:04;100561.02;;;13.00;81.28
12073;BME280;6098;49.004;8.372;2023-04-19T14:46:57;100548.34;;;13.25;76.69
12073;BME280;6098;49.004;8.372;2023-04-19T15:01:50;100527.25;;;14.28;73.50
12073;BME280;6098;49.004;8.372;2023-04-19T15:16:52;100508.79;;;15.22;65.81
12073;BME280;6098;49.004;8.372;2023-04-19T15:31:42;100505.48;;;15.42;65.43
12073;BME280;6098;49.004;8.372;2023-04-19T15:46:33;100500.31;;;15.15;65.16
12073;BME280;6098;49.004;8.372;2023-04-19T16:01:22;100492.06;;;14.88;64.44
12073;BME280;6098;49.004;8.372;2023-04-19T16:16:13;100530.77;;;14.37;57.77
12073;BME280;6098;49.004;8.372;2023-04-19T16:30:58;100542.03;;;12.50;66.37
12073;BME280;6098;49.004;8.372;2023-04-19T16:45:49;100505.91;;;12.36;64.24
12073;BME280;6098;49.004;8.372;2023-04-19T17:00:43;100508.09;;;12.45;66.51
12073;BME280;6098;49.004;8.372;2023-04-19T17:15:36;100500.00;;;12.48;70.19
12073;BME280;6098;49.004;8.372;2023-04-19T17:30:28;100501.86;;;12.46;69.78
12073;BME280;6098;49.004;8.372;2023-04-19T17:45:21;100505.75;;;12.39;71.81
12073;BME280;6098;49.004;8.372;2023-04-19T18:00:14;100514.11;;;12.20;69.14
12073;BME280;6098;49.004;8.372;2023-04-19T18:15:05;100518.13;;;11.99;66.34
12073;BME280;6098;49.004;8.372;2023-04-19T18:29:58;100528.05;;;11.84;59.64
12073;BME280;6098;49.004;8.372;2023-04-19T18:44:49;100534.37;;;11.70;57.58
12073;BME280;6098;49.004;8.372;2023-04-19T18:59:42;100545.26;;;11.42;53.16
12073;BME280;6098;49.004;8.372;2023-04-19T19:29:41;100590.17;;;11.13;51.71
12073;BME280;6098;49.004;8.372;2023-04-19T19:44:31;100572.16;;;10.86;52.49
12073;BME280;6098;49.004;8.372;2023-04-19T19:59:23;100572.95;;;10.76;51.42
12073;BME280;6098;49.004;8.372;2023-04-19T20:14:14;100582.89;;;10.59;52.08
12073;BME280;6098;49.004;8.372;2023-04-19T20:29:17;100584.68;;;10.46;51.59
12073;BME280;6098;49.004;8.372;2023-04-19T20:44:23;100576.14;;;10.25;51.23
12073;BME280;6098;49.004;8.372;2023-04-19T20:59:14;100576.21;;;10.11;51.56
12073;BME280;6098;49.004;8.372;2023-04-19T21:14:05;100573.47;;;9.86;52.74
12073;BME280;6098;49.004;8.372;2023-04-19T21:29:12;100579.11;;;9.48;55.61
12073;BME280;6098;49.004;8.372;2023-04-19T21:44:03;100573.05;;;9.16;57.26
12073;BME280;6098;49.004;8.372;2023-04-19T21:58:54;100561.11;;;9.02;57.67
12073;BME280;6098;49.004;8.372;2023-04-19T22:13:46;100557.26;;;8.83;57.34
12073;BME280;6098;49.004;8.372;2023-04-19T22:28:38;100546.67;;;8.69;57.88
12073;BME280;6098;49.004;8.372;2023-04-19T22:43:30;100526.40;;;8.54;57.53
12073;BME280;6098;49.004;8.372;2023-04-19T22:58:21;100512.34;;;8.38;58.08
12073;BME280;6098;49.004;8.372;2023-04-19T23:13:12;100497.77;;;8.22;58.81
12073;BME280;6098;49.004;8.372;2023-04-19T23:28:04;100475.48;;;8.17;59.27
12073;BME280;6098;49.004;8.372;2023-04-19T23:42:55;100469.70;;;7.86;61.08
12073;BME280;6098;49.004;8.372;2023-04-19T23:57:45;100460.38;;;7.72;61.67
